Chantaco — FMLM — position and weather

sailwx.info

Track history (hours):
 
Tides and Currents Weather Stations Pressure Air Temp Water Temp Dewpoint Dewpoint Depression Visibility Wind Speed Wind Dir Waves Ship Positions

Chantaco

Last reported at 2017-Feb-21 09:33 UTC. Time now 2017-Feb-21 10:08 UTC.
Position N 51°55' E 004°13'.

Length 143 m; draft 8.6 m.

Type: Tanker. MMSI: 228330700.

Date/timePositionNaut miles runAvg speedWind from/ knotsBaromVisibWave heightAir tempDewpointWater temp
2017-Feb-21 09:33N 51°55' E 004°13'0 0.0
2017-Feb-21 08:33N 51°55' E 004°13'0 0.0
2017-Feb-21 07:33N 51°55' E 004°13'0 0.0
2017-Feb-21 06:33N 51°55' E 004°13'0 0.0
2017-Feb-21 05:33N 51°55' E 004°13'0 0.0
2017-Feb-21 04:33N 51°55' E 004°13'0 0.0
2017-Feb-21 03:33N 51°55' E 004°13'0 0.0
2017-Feb-21 02:30N 51°55' E 004°13'0 0.0
2017-Feb-21 01:33N 51°55' E 004°13'0 0.0
2017-Feb-21 00:33N 51°55' E 004°13'0 0.0
2017-Feb-20 23:33N 51°55' E 004°13'0 0.0
2017-Feb-20 22:33N 51°55' E 004°13'1 1.0
2017-Feb-20 21:33N 51°56' E 004°12'1111.2
2017-Feb-20 20:33N 52°00' E 003°55'1110.6
2017-Feb-20 19:33N 52°04' E 003°39'2512.6
2017-Feb-20 17:33N 52°29' E 003°30'1414.1
2017-Feb-20 16:33N 52°43' E 003°30'17510.8
2017-Feb-20 00:20N 54°08' E 007°47'1113.6
2017-Feb-19 23:33N 54°02' E 008°03'1313.1
2017-Feb-19 22:33N 53°59' E 008°25'1413.7
2017-Feb-19 21:33N 53°52' E 008°44'1313.0
2017-Feb-19 20:34N 53°53' E 009°06'2 1.9
2017-Feb-19 19:33N 53°54' E 009°09'6 5.9
2017-Feb-19 18:34N 53°58' E 009°15'8 7.7
2017-Feb-19 17:33N 54°05' E 009°19'7 7.1
2017-Feb-19 16:31N 54°11' E 009°28'39 4.8
2017-Feb-19 08:30N 54°32' E 010°24'1213.0
2017-Feb-19 07:33N 54°35' E 010°44'1312.9
2017-Feb-19 06:33N 54°37' E 011°06'1312.5
2017-Feb-19 05:33N 54°32' E 011°26'1312.6
2017-Feb-19 04:33N 54°27' E 011°46'1312.5
2017-Feb-19 03:33N 54°27' E 012°08'1111.2
2017-Feb-19 02:33N 54°36' E 012°17'1211.0
2017-Feb-19 01:29N 54°44' E 012°33'3913.1
2017-Feb-18 22:31N 54°59' E 013°35'1313.2
2017-Feb-18 21:33N 55°02' E 013°57'1313.2
2017-Feb-18 20:32N 55°11' E 014°15'1313.6
2017-Feb-18 19:33N 55°21' E 014°29'1413.6
2017-Feb-18 18:33N 55°30' E 014°48'1413.9
2017-Feb-18 17:34N 55°35' E 015°10'1414.0
2017-Feb-18 16:33N 55°39' E 015°34'1413.5
2017-Feb-18 15:34N 55°43' E 015°57'1413.5
2017-Feb-18 14:34N 55°47' E 016°20'1313.3
2017-Feb-18 13:33N 55°50' E 016°43'1413.4
2017-Feb-18 12:33N 55°53' E 017°06'1313.6
2017-Feb-18 11:34N 55°57' E 017°30'1413.6
2017-Feb-18 10:34N 56°02' E 017°52'28513.6
2017-Feb-17 13:32N 59°40' E 023°38'1414.1
2017-Feb-17 12:31N 59°44' E 024°05'9313.3
2017-Feb-17 05:31N 59°37' E 027°09'1212.7
2017-Feb-17 04:33N 59°33' E 027°32'5 5.2
2017-Feb-17 03:34N 59°30' E 027°40'5 0.2
2017-Feb-15 23:11N 59°25' E 027°44'0 0.3
2017-Feb-15 22:33N 59°25' E 027°44'4 3.9
2017-Feb-15 21:33N 59°29' E 027°42'0 0.1
2017-Feb-15 20:33N 59°29' E 027°42'0 0.0
2017-Feb-15 19:33N 59°29' E 027°42'0 0.0
2017-Feb-15 18:33N 59°29' E 027°42'0 0.0
2017-Feb-15 17:33N 59°29' E 027°42'0 0.1
2017-Feb-15 16:33N 59°29' E 027°42'7 7.5
2017-Feb-15 15:34N 59°32' E 027°28'1111.2
2017-Feb-15 14:34N 59°37' E 027°08'1313.5
2017-Feb-15 13:34N 59°42' E 026°43'1813.4
2017-Feb-15 12:11N 59°48' E 026°09'913.3
2017-Feb-15 11:32N 59°52' E 025°54'6813.4
2017-Feb-15 06:27N 59°36' E 023°42'1313.3
2017-Feb-15 05:29N 59°32' E 023°18'31713.2
2017-Feb-14 05:24N 55°52' E 016°09'1313.0
2017-Feb-14 04:26N 55°46' E 015°49'1313.2
2017-Feb-14 03:26N 55°40' E 015°29'1213.2
2017-Feb-14 02:32N 55°34' E 015°10'1312.9
2017-Feb-14 01:33N 55°28' E 014°50'1312.8
2017-Feb-14 00:33N 55°20' E 014°33'1313.3
2017-Feb-13 23:33N 55°09' E 014°19'1312.8
2017-Feb-13 22:33N 55°00' E 014°04'1413.0
2017-Feb-13 21:30N 54°56' E 013°41'1212.8
2017-Feb-13 20:33N 54°52' E 013°21'1312.9
2017-Feb-13 19:32N 54°48' E 012°59'1212.1
2017-Feb-13 18:33N 54°44' E 012°40'1211.9
2017-Feb-13 17:33N 54°37' E 012°23'1110.7
2017-Feb-13 16:33N 54°28' E 012°14'1110.9
2017-Feb-13 15:33N 54°19' E 012°03'9 9.1
2017-Feb-13 14:33N 54°10' E 012°06'1 0.3
2017-Feb-13 11:31N 54°09' E 012°08'0 0.0
2017-Feb-13 10:28N 54°09' E 012°08'0 0.0
2017-Feb-13 07:25N 54°09' E 012°08'0 0.0
2017-Feb-13 06:22N 54°09' E 012°08'0 0.0
2017-Feb-13 05:25N 54°09' E 012°08'0 0.0
2017-Feb-13 03:22N 54°09' E 012°08'0 0.0
2017-Feb-12 22:31N 54°09' E 012°08'0 0.0
2017-Feb-12 21:16N 54°09' E 012°08'0 0.0
2017-Feb-12 18:07N 54°09' E 012°08'0 0.0
2017-Feb-12 17:25N 54°09' E 012°08'0 0.0
2017-Feb-12 16:28N 54°09' E 012°08'0 0.0
2017-Feb-12 15:31N 54°09' E 012°08'0 0.0
2017-Feb-12 14:28N 54°09' E 012°08'0 0.0
2017-Feb-12 10:15N 54°09' E 012°08'0 0.0
2017-Feb-12 08:15N 54°09' E 012°08'0 0.0
2017-Feb-12 07:33N 54°09' E 012°08'0 0.0
2017-Feb-12 05:30N 54°09' E 012°08'0 0.0
2017-Feb-12 04:18N 54°09' E 012°08'0 0.0
2017-Feb-12 01:30N 54°09' E 012°08'0 0.0
2017-Feb-12 00:33N 54°09' E 012°08'0 0.0
2017-Feb-11 23:30N 54°09' E 012°08'0 0.0
2017-Feb-11 21:33N 54°09' E 012°08'0 0.0
2017-Feb-11 19:15N 54°09' E 012°08'0 0.0
2017-Feb-11 17:30N 54°09' E 012°08'0 0.0
2017-Feb-11 16:33N 54°09' E 012°08'0 0.0
2017-Feb-11 15:30N 54°09' E 012°08'0 0.0
2017-Feb-11 13:21N 54°09' E 012°08'0 0.0
2017-Feb-11 12:33N 54°09' E 012°08'1 0.9
2017-Feb-11 11:33N 54°10' E 012°06'9 9.2
2017-Feb-11 10:33N 54°18' E 012°02'  
Track history (hours):
 
Tides and Currents Weather Stations Pressure Air Temp Water Temp Dewpoint Dewpoint Depression Visibility Wind Speed Wind Dir Waves Ship Positions

Chantaco

Last reported at 2017-Feb-21 09:33 UTC. Time now 2017-Feb-21 10:08 UTC.
Position N 51°55' E 004°13'.

Length 143 m; draft 8.6 m.

Type: Tanker. MMSI: 228330700.

Date/timePositionNaut miles runAvg speedWind from/ knotsBaromVisibWave heightAir tempDewpointWater temp
2017-Feb-21 09:33N 51°55' E 004°13'0 0.0
2017-Feb-21 08:33N 51°55' E 004°13'0 0.0
2017-Feb-21 07:33N 51°55' E 004°13'0 0.0
2017-Feb-21 06:33N 51°55' E 004°13'0 0.0
2017-Feb-21 05:33N 51°55' E 004°13'0 0.0
2017-Feb-21 04:33N 51°55' E 004°13'0 0.0
2017-Feb-21 03:33N 51°55' E 004°13'0 0.0
2017-Feb-21 02:30N 51°55' E 004°13'0 0.0
2017-Feb-21 01:33N 51°55' E 004°13'0 0.0
2017-Feb-21 00:33N 51°55' E 004°13'0 0.0
2017-Feb-20 23:33N 51°55' E 004°13'0 0.0
2017-Feb-20 22:33N 51°55' E 004°13'1 1.0
2017-Feb-20 21:33N 51°56' E 004°12'1111.2
2017-Feb-20 20:33N 52°00' E 003°55'1110.6
2017-Feb-20 19:33N 52°04' E 003°39'2512.6
2017-Feb-20 17:33N 52°29' E 003°30'1414.1
2017-Feb-20 16:33N 52°43' E 003°30'17510.8
2017-Feb-20 00:20N 54°08' E 007°47'1113.6
2017-Feb-19 23:33N 54°02' E 008°03'1313.1
2017-Feb-19 22:33N 53°59' E 008°25'1413.7
2017-Feb-19 21:33N 53°52' E 008°44'1313.0
2017-Feb-19 20:34N 53°53' E 009°06'2 1.9
2017-Feb-19 19:33N 53°54' E 009°09'6 5.9
2017-Feb-19 18:34N 53°58' E 009°15'8 7.7
2017-Feb-19 17:33N 54°05' E 009°19'7 7.1
2017-Feb-19 16:31N 54°11' E 009°28'39 4.8
2017-Feb-19 08:30N 54°32' E 010°24'1213.0
2017-Feb-19 07:33N 54°35' E 010°44'1312.9
2017-Feb-19 06:33N 54°37' E 011°06'1312.5
2017-Feb-19 05:33N 54°32' E 011°26'1312.6
2017-Feb-19 04:33N 54°27' E 011°46'1312.5
2017-Feb-19 03:33N 54°27' E 012°08'1111.2
2017-Feb-19 02:33N 54°36' E 012°17'1211.0
2017-Feb-19 01:29N 54°44' E 012°33'3913.1
2017-Feb-18 22:31N 54°59' E 013°35'1313.2
2017-Feb-18 21:33N 55°02' E 013°57'1313.2
2017-Feb-18 20:32N 55°11' E 014°15'1313.6
2017-Feb-18 19:33N 55°21' E 014°29'1413.6
2017-Feb-18 18:33N 55°30' E 014°48'1413.9
2017-Feb-18 17:34N 55°35' E 015°10'1414.0
2017-Feb-18 16:33N 55°39' E 015°34'1413.5
2017-Feb-18 15:34N 55°43' E 015°57'1413.5
2017-Feb-18 14:34N 55°47' E 016°20'1313.3
2017-Feb-18 13:33N 55°50' E 016°43'1413.4
2017-Feb-18 12:33N 55°53' E 017°06'1313.6
2017-Feb-18 11:34N 55°57' E 017°30'1413.6
2017-Feb-18 10:34N 56°02' E 017°52'28513.6
2017-Feb-17 13:32N 59°40' E 023°38'1414.1
2017-Feb-17 12:31N 59°44' E 024°05'9313.3
2017-Feb-17 05:31N 59°37' E 027°09'1212.7
2017-Feb-17 04:33N 59°33' E 027°32'5 5.2
2017-Feb-17 03:34N 59°30' E 027°40'5 0.2
2017-Feb-15 23:11N 59°25' E 027°44'0 0.3
2017-Feb-15 22:33N 59°25' E 027°44'4 3.9
2017-Feb-15 21:33N 59°29' E 027°42'0 0.1
2017-Feb-15 20:33N 59°29' E 027°42'0 0.0
2017-Feb-15 19:33N 59°29' E 027°42'0 0.0
2017-Feb-15 18:33N 59°29' E 027°42'0 0.0
2017-Feb-15 17:33N 59°29' E 027°42'0 0.1
2017-Feb-15 16:33N 59°29' E 027°42'7 7.5
2017-Feb-15 15:34N 59°32' E 027°28'1111.2
2017-Feb-15 14:34N 59°37' E 027°08'1313.5
2017-Feb-15 13:34N 59°42' E 026°43'1813.4
2017-Feb-15 12:11N 59°48' E 026°09'913.3
2017-Feb-15 11:32N 59°52' E 025°54'6813.4
2017-Feb-15 06:27N 59°36' E 023°42'1313.3
2017-Feb-15 05:29N 59°32' E 023°18'31713.2
2017-Feb-14 05:24N 55°52' E 016°09'1313.0
2017-Feb-14 04:26N 55°46' E 015°49'1313.2
2017-Feb-14 03:26N 55°40' E 015°29'1213.2
2017-Feb-14 02:32N 55°34' E 015°10'1312.9
2017-Feb-14 01:33N 55°28' E 014°50'1312.8
2017-Feb-14 00:33N 55°20' E 014°33'1313.3
2017-Feb-13 23:33N 55°09' E 014°19'1312.8
2017-Feb-13 22:33N 55°00' E 014°04'1413.0
2017-Feb-13 21:30N 54°56' E 013°41'1212.8
2017-Feb-13 20:33N 54°52' E 013°21'1312.9
2017-Feb-13 19:32N 54°48' E 012°59'1212.1
2017-Feb-13 18:33N 54°44' E 012°40'1211.9
2017-Feb-13 17:33N 54°37' E 012°23'1110.7
2017-Feb-13 16:33N 54°28' E 012°14'1110.9
2017-Feb-13 15:33N 54°19' E 012°03'9 9.1
2017-Feb-13 14:33N 54°10' E 012°06'1 0.3
2017-Feb-13 11:31N 54°09' E 012°08'0 0.0
2017-Feb-13 10:28N 54°09' E 012°08'0 0.0
2017-Feb-13 07:25N 54°09' E 012°08'0 0.0
2017-Feb-13 06:22N 54°09' E 012°08'0 0.0
2017-Feb-13 05:25N 54°09' E 012°08'0 0.0
2017-Feb-13 03:22N 54°09' E 012°08'0 0.0
2017-Feb-12 22:31N 54°09' E 012°08'0 0.0
2017-Feb-12 21:16N 54°09' E 012°08'0 0.0
2017-Feb-12 18:07N 54°09' E 012°08'0 0.0
2017-Feb-12 17:25N 54°09' E 012°08'0 0.0
2017-Feb-12 16:28N 54°09' E 012°08'0 0.0
2017-Feb-12 15:31N 54°09' E 012°08'0 0.0
2017-Feb-12 14:28N 54°09' E 012°08'0 0.0
2017-Feb-12 10:15N 54°09' E 012°08'0 0.0
2017-Feb-12 08:15N 54°09' E 012°08'0 0.0
2017-Feb-12 07:33N 54°09' E 012°08'0 0.0
2017-Feb-12 05:30N 54°09' E 012°08'0 0.0
2017-Feb-12 04:18N 54°09' E 012°08'0 0.0
2017-Feb-12 01:30N 54°09' E 012°08'0 0.0
2017-Feb-12 00:33N 54°09' E 012°08'0 0.0
2017-Feb-11 23:30N 54°09' E 012°08'0 0.0
2017-Feb-11 21:33N 54°09' E 012°08'0 0.0
2017-Feb-11 19:15N 54°09' E 012°08'0 0.0
2017-Feb-11 17:30N 54°09' E 012°08'0 0.0
2017-Feb-11 16:33N 54°09' E 012°08'0 0.0
2017-Feb-11 15:30N 54°09' E 012°08'0 0.0
2017-Feb-11 13:21N 54°09' E 012°08'0 0.0
2017-Feb-11 12:33N 54°09' E 012°08'1 0.9
2017-Feb-11 11:33N 54°10' E 012°06'9 9.2
2017-Feb-11 10:33N 54°18' E 012°02'  

Dump ship's entire track history